sensor_id;sensor_type;location;lat;lon;timestamp;temperature;humidity
2957;DHT22;1488;51.548;7.222;2023-03-15T00:02:09;19.70;61.90
2957;DHT22;1488;51.548;7.222;2023-03-15T00:04:36;19.60;61.80
2957;DHT22;1488;51.548;7.222;2023-03-15T00:07:03;19.70;61.70
2957;DHT22;1488;51.548;7.222;2023-03-15T00:09:30;19.60;61.70
2957;DHT22;1488;51.548;7.222;2023-03-15T00:11:58;19.70;61.70
2957;DHT22;1488;51.548;7.222;2023-03-15T00:14:25;19.80;61.70
2957;DHT22;1488;51.548;7.222;2023-03-15T00:16:52;19.60;61.50
2957;DHT22;1488;51.548;7.222;2023-03-15T00:19:19;19.70;62.50
2957;DHT22;1488;51.548;7.222;2023-03-15T00:21:46;19.70;61.60
2957;DHT22;1488;51.548;7.222;2023-03-15T00:24:13;19.60;61.50
2957;DHT22;1488;51.548;7.222;2023-03-15T00:26:40;19.60;61.40
2957;DHT22;1488;51.548;7.222;2023-03-15T00:29:08;19.70;61.50
2957;DHT22;1488;51.548;7.222;2023-03-15T00:31:35;19.60;61.40
2957;DHT22;1488;51.548;7.222;2023-03-15T00:34:02;19.60;61.40
2957;DHT22;1488;51.548;7.222;2023-03-15T00:36:28;19.60;61.40
2957;DHT22;1488;51.548;7.222;2023-03-15T00:38:55;19.60;61.40
2957;DHT22;1488;51.548;7.222;2023-03-15T00:41:23;19.60;62.20
2957;DHT22;1488;51.548;7.222;2023-03-15T00:43:50;19.60;61.30
2957;DHT22;1488;51.548;7.222;2023-03-15T00:46:19;19.60;61.20
2957;DHT22;1488;51.548;7.222;2023-03-15T00:48:49;19.70;61.30
2957;DHT22;1488;51.548;7.222;2023-03-15T00:51:19;19.50;61.10
2957;DHT22;1488;51.548;7.222;2023-03-15T00:53:47;19.50;61.00
2957;DHT22;1488;51.548;7.222;2023-03-15T00:56:17;19.50;61.10
2957;DHT22;1488;51.548;7.222;2023-03-15T00:58:44;19.50;61.00
2957;DHT22;1488;51.548;7.222;2023-03-15T01:01:13;19.50;60.90
2957;DHT22;1488;51.548;7.222;2023-03-15T01:03:42;19.50;60.90
2957;DHT22;1488;51.548;7.222;2023-03-15T01:06:11;19.50;61.10
2957;DHT22;1488;51.548;7.222;2023-03-15T01:08:38;19.50;61.10
2957;DHT22;1488;51.548;7.222;2023-03-15T01:11:07;19.50;61.10
2957;DHT22;1488;51.548;7.222;2023-03-15T01:13:35;19.50;61.00
2957;DHT22;1488;51.548;7.222;2023-03-15T01:16:02;19.50;61.00
2957;DHT22;1488;51.548;7.222;2023-03-15T01:18:29;19.50;61.00
2957;DHT22;1488;51.548;7.222;2023-03-15T01:20:58;19.50;61.00
2957;DHT22;1488;51.548;7.222;2023-03-15T01:23:25;19.50;60.90
2957;DHT22;1488;51.548;7.222;2023-03-15T01:25:52;19.50;60.80
2957;DHT22;1488;51.548;7.222;2023-03-15T01:28:19;19.50;60.90
2957;DHT22;1488;51.548;7.222;2023-03-15T01:30:49;19.60;60.90
2957;DHT22;1488;51.548;7.222;2023-03-15T01:33:16;19.60;60.90
2957;DHT22;1488;51.548;7.222;2023-03-15T01:35:43;19.40;60.80
2957;DHT22;1488;51.548;7.222;2023-03-15T01:38:11;19.40;60.80
2957;DHT22;1488;51.548;7.222;2023-03-15T01:40:42;19.40;60.80
2957;DHT22;1488;51.548;7.222;2023-03-15T01:43:18;19.40;60.70
2957;DHT22;1488;51.548;7.222;2023-03-15T01:46:11;19.40;60.70
2957;DHT22;1488;51.548;7.222;2023-03-15T01:48:42;19.40;60.70
2957;DHT22;1488;51.548;7.222;2023-03-15T01:51:14;19.50;60.80
2957;DHT22;1488;51.548;7.222;2023-03-15T01:53:45;19.40;60.60
2957;DHT22;1488;51.548;7.222;2023-03-15T01:56:14;19.40;60.80
2957;DHT22;1488;51.548;7.222;2023-03-15T01:58:42;19.50;60.80
2957;DHT22;1488;51.548;7.222;2023-03-15T02:01:11;19.50;60.70
2957;DHT22;1488;51.548;7.222;2023-03-15T02:03:41;19.40;60.70
2957;DHT22;1488;51.548;7.222;2023-03-15T02:06:13;19.40;60.60
2957;DHT22;1488;51.548;7.222;2023-03-15T02:08:46;19.40;60.60
2957;DHT22;1488;51.548;7.222;2023-03-15T02:11:17;19.40;60.60
2957;DHT22;1488;51.548;7.222;2023-03-15T02:13:45;19.60;60.90
2957;DHT22;1488;51.548;7.222;2023-03-15T02:16:13;19.40;60.60
2957;DHT22;1488;51.548;7.222;2023-03-15T02:18:40;19.40;60.60
2957;DHT22;1488;51.548;7.222;2023-03-15T02:21:15;19.40;60.60
2957;DHT22;1488;51.548;7.222;2023-03-15T02:23:53;19.40;60.60
2957;DHT22;1488;51.548;7.222;2023-03-15T02:26:26;19.40;60.60
2957;DHT22;1488;51.548;7.222;2023-03-15T02:28:57;19.40;60.60
2957;DHT22;1488;51.548;7.222;2023-03-15T02:31:24;19.30;60.50
2957;DHT22;1488;51.548;7.222;2023-03-15T02:33:52;19.30;60.50
2957;DHT22;1488;51.548;7.222;2023-03-15T02:36:21;19.30;60.50
2957;DHT22;1488;51.548;7.222;2023-03-15T02:38:50;19.30;60.50
2957;DHT22;1488;51.548;7.222;2023-03-15T02:41:19;19.30;60.40
2957;DHT22;1488;51.548;7.222;2023-03-15T02:43:49;19.50;60.60
2957;DHT22;1488;51.548;7.222;2023-03-15T02:46:20;19.30;60.40
2957;DHT22;1488;51.548;7.222;2023-03-15T02:48:47;19.30;60.40
2957;DHT22;1488;51.548;7.222;2023-03-15T02:51:20;19.30;60.40
2957;DHT22;1488;51.548;7.222;2023-03-15T02:53:47;19.30;60.40
2957;DHT22;1488;51.548;7.222;2023-03-15T02:56:14;19.30;60.40
2957;DHT22;1488;51.548;7.222;2023-03-15T02:58:42;19.10;60.20
2957;DHT22;1488;51.548;7.222;2023-03-15T03:01:10;19.40;60.50
2957;DHT22;1488;51.548;7.222;2023-03-15T03:03:39;19.30;60.40
2957;DHT22;1488;51.548;7.222;2023-03-15T03:06:06;19.30;60.40
2957;DHT22;1488;51.548;7.222;2023-03-15T03:08:33;19.40;60.60
2957;DHT22;1488;51.548;7.222;2023-03-15T03:11:00;19.30;60.40
2957;DHT22;1488;51.548;7.222;2023-03-15T03:13:27;19.30;60.40
2957;DHT22;1488;51.548;7.222;2023-03-15T03:15:54;19.20;60.20
2957;DHT22;1488;51.548;7.222;2023-03-15T03:18:24;19.20;60.20
2957;DHT22;1488;51.548;7.222;2023-03-15T03:20:55;19.20;60.20
2957;DHT22;1488;51.548;7.222;2023-03-15T03:23:22;19.20;60.20
2957;DHT22;1488;51.548;7.222;2023-03-15T03:25:50;19.40;60.40
2957;DHT22;1488;51.548;7.222;2023-03-15T03:28:18;19.20;60.20
2957;DHT22;1488;51.548;7.222;2023-03-15T03:30:45;19.20;61.10
2957;DHT22;1488;51.548;7.222;2023-03-15T03:33:12;19.30;60.40
2957;DHT22;1488;51.548;7.222;2023-03-15T03:35:39;19.30;60.30
2957;DHT22;1488;51.548;7.222;2023-03-15T03:38:09;19.20;60.10
2957;DHT22;1488;51.548;7.222;2023-03-15T03:40:36;19.20;60.20
2957;DHT22;1488;51.548;7.222;2023-03-15T03:43:04;19.20;60.20
2957;DHT22;1488;51.548;7.222;2023-03-15T03:45:30;19.20;60.10
2957;DHT22;1488;51.548;7.222;2023-03-15T03:47:57;19.20;60.30
2957;DHT22;1488;51.548;7.222;2023-03-15T03:50:24;19.20;60.20
2957;DHT22;1488;51.548;7.222;2023-03-15T03:52:52;19.20;60.20
2957;DHT22;1488;51.548;7.222;2023-03-15T03:55:20;19.20;60.20
2957;DHT22;1488;51.548;7.222;2023-03-15T03:57:50;19.40;60.40
2957;DHT22;1488;51.548;7.222;2023-03-15T04:00:18;19.20;60.10
2957;DHT22;1488;51.548;7.222;2023-03-15T04:02:46;19.20;60.20
2957;DHT22;1488;51.548;7.222;2023-03-15T04:05:12;19.20;60.20
2957;DHT22;1488;51.548;7.222;2023-03-15T04:07:39;19.20;60.10
2957;DHT22;1488;51.548;7.222;2023-03-15T04:10:07;19.20;60.20
2957;DHT22;1488;51.548;7.222;2023-03-15T04:12:40;19.20;60.30
2957;DHT22;1488;51.548;7.222;2023-03-15T04:15:07;19.20;60.20
2957;DHT22;1488;51.548;7.222;2023-03-15T04:17:36;19.20;60.20
2957;DHT22;1488;51.548;7.222;2023-03-15T04:20:03;19.20;61.00
2957;DHT22;1488;51.548;7.222;2023-03-15T04:22:32;19.20;60.10
2957;DHT22;1488;51.548;7.222;2023-03-15T04:24:59;19.10;60.00
2957;DHT22;1488;51.548;7.222;2023-03-15T04:27:27;19.10;60.10
2957;DHT22;1488;51.548;7.222;2023-03-15T04:29:55;19.20;60.20
2957;DHT22;1488;51.548;7.222;2023-03-15T04:32:22;19.20;60.20
2957;DHT22;1488;51.548;7.222;2023-03-15T04:34:49;19.20;60.10
2957;DHT22;1488;51.548;7.222;2023-03-15T04:37:16;19.30;60.30
2957;DHT22;1488;51.548;7.222;2023-03-15T04:39:43;19.10;60.00
2957;DHT22;1488;51.548;7.222;2023-03-15T04:42:10;19.10;60.90
2957;DHT22;1488;51.548;7.222;2023-03-15T04:44:37;19.10;60.10
2957;DHT22;1488;51.548;7.222;2023-03-15T04:47:05;19.10;60.00
2957;DHT22;1488;51.548;7.222;2023-03-15T04:49:32;19.10;60.00
2957;DHT22;1488;51.548;7.222;2023-03-15T04:51:59;19.10;60.00
2957;DHT22;1488;51.548;7.222;2023-03-15T04:54:26;19.20;60.10
2957;DHT22;1488;51.548;7.222;2023-03-15T04:56:53;19.10;60.00
2957;DHT22;1488;51.548;7.222;2023-03-15T04:59:20;19.10;60.00
2957;DHT22;1488;51.548;7.222;2023-03-15T05:01:47;19.10;60.00
2957;DHT22;1488;51.548;7.222;2023-03-15T05:04:15;19.20;60.00
2957;DHT22;1488;51.548;7.222;2023-03-15T05:06:43;19.10;60.00
2957;DHT22;1488;51.548;7.222;2023-03-15T05:09:10;19.10;59.90
2957;DHT22;1488;51.548;7.222;2023-03-15T05:11:43;19.10;60.00
2957;DHT22;1488;51.548;7.222;2023-03-15T05:14:10;19.10;60.00
2957;DHT22;1488;51.548;7.222;2023-03-15T05:16:36;19.10;60.00
2957;DHT22;1488;51.548;7.222;2023-03-15T05:19:04;19.20;60.00
2957;DHT22;1488;51.548;7.222;2023-03-15T05:21:32;19.10;59.90
2957;DHT22;1488;51.548;7.222;2023-03-15T05:23:59;19.10;60.00
2957;DHT22;1488;51.548;7.222;2023-03-15T05:26:25;19.10;60.00
2957;DHT22;1488;51.548;7.222;2023-03-15T05:28:52;19.10;60.00
2957;DHT22;1488;51.548;7.222;2023-03-15T05:31:19;19.10;60.00
2957;DHT22;1488;51.548;7.222;2023-03-15T05:33:46;19.10;60.00
2957;DHT22;1488;51.548;7.222;2023-03-15T05:36:13;19.10;59.90
2957;DHT22;1488;51.548;7.222;2023-03-15T05:38:42;19.10;59.90
2957;DHT22;1488;51.548;7.222;2023-03-15T05:41:08;19.10;60.00
2957;DHT22;1488;51.548;7.222;2023-03-15T05:43:35;19.10;59.90
2957;DHT22;1488;51.548;7.222;2023-03-15T05:46:02;19.10;59.90
2957;DHT22;1488;51.548;7.222;2023-03-15T05:48:29;19.10;60.00
2957;DHT22;1488;51.548;7.222;2023-03-15T05:50:56;19.10;60.00
2957;DHT22;1488;51.548;7.222;2023-03-15T05:53:23;19.10;59.90
2957;DHT22;1488;51.548;7.222;2023-03-15T05:55:52;19.10;60.00
2957;DHT22;1488;51.548;7.222;2023-03-15T05:58:18;19.20;60.00
2957;DHT22;1488;51.548;7.222;2023-03-15T06:00:45;19.10;60.00
2957;DHT22;1488;51.548;7.222;2023-03-15T06:03:13;19.10;59.90
2957;DHT22;1488;51.548;7.222;2023-03-15T06:05:40;19.00;59.90
2957;DHT22;1488;51.548;7.222;2023-03-15T06:08:08;19.00;59.80
2957;DHT22;1488;51.548;7.222;2023-03-15T06:10:34;19.00;60.60
2957;DHT22;1488;51.548;7.222;2023-03-15T06:13:03;19.00;59.80
2957;DHT22;1488;51.548;7.222;2023-03-15T06:15:30;19.00;59.90
2957;DHT22;1488;51.548;7.222;2023-03-15T06:17:57;19.00;59.90
2957;DHT22;1488;51.548;7.222;2023-03-15T06:20:24;19.00;59.90
2957;DHT22;1488;51.548;7.222;2023-03-15T06:22:51;19.00;59.90
2957;DHT22;1488;51.548;7.222;2023-03-15T06:25:18;19.10;59.90
2957;DHT22;1488;51.548;7.222;2023-03-15T06:27:45;19.00;59.90
2957;DHT22;1488;51.548;7.222;2023-03-15T06:30:14;19.00;59.90
2957;DHT22;1488;51.548;7.222;2023-03-15T06:32:40;19.00;59.90
2957;DHT22;1488;51.548;7.222;2023-03-15T06:35:08;19.00;59.80
2957;DHT22;1488;51.548;7.222;2023-03-15T06:37:35;19.00;59.90
2957;DHT22;1488;51.548;7.222;2023-03-15T06:40:03;19.00;59.80
2957;DHT22;1488;51.548;7.222;2023-03-15T06:42:31;19.00;59.90
2957;DHT22;1488;51.548;7.222;2023-03-15T06:44:58;19.00;59.80
2957;DHT22;1488;51.548;7.222;2023-03-15T06:47:27;19.00;59.80
2957;DHT22;1488;51.548;7.222;2023-03-15T06:49:54;19.00;59.80
2957;DHT22;1488;51.548;7.222;2023-03-15T06:52:22;19.00;59.80
2957;DHT22;1488;51.548;7.222;2023-03-15T06:54:52;19.00;59.80
2957;DHT22;1488;51.548;7.222;2023-03-15T06:57:18;19.10;59.90
2957;DHT22;1488;51.548;7.222;2023-03-15T06:59:45;19.00;59.70
2957;DHT22;1488;51.548;7.222;2023-03-15T07:02:13;19.00;59.70
2957;DHT22;1488;51.548;7.222;2023-03-15T07:08:05;19.00;59.80
2957;DHT22;1488;51.548;7.222;2023-03-15T07:10:32;19.00;59.90
2957;DHT22;1488;51.548;7.222;2023-03-15T07:12:59;19.10;59.80
2957;DHT22;1488;51.548;7.222;2023-03-15T07:15:26;19.00;59.70
2957;DHT22;1488;51.548;7.222;2023-03-15T07:18:00;19.00;59.80
2957;DHT22;1488;51.548;7.222;2023-03-15T07:20:27;19.10;59.80
2957;DHT22;1488;51.548;7.222;2023-03-15T07:22:54;19.10;59.90
2957;DHT22;1488;51.548;7.222;2023-03-15T07:25:23;19.10;59.90
2957;DHT22;1488;51.548;7.222;2023-03-15T07:27:50;19.20;60.00
2957;DHT22;1488;51.548;7.222;2023-03-15T07:30:18;19.10;59.90
2957;DHT22;1488;51.548;7.222;2023-03-15T07:32:45;19.10;59.80
2957;DHT22;1488;51.548;7.222;2023-03-15T07:35:13;19.10;59.80
2957;DHT22;1488;51.548;7.222;2023-03-15T07:37:41;19.20;59.70
2957;DHT22;1488;51.548;7.222;2023-03-15T07:40:09;19.20;59.60
2957;DHT22;1488;51.548;7.222;2023-03-15T07:42:38;19.20;59.80
2957;DHT22;1488;51.548;7.222;2023-03-15T07:45:07;19.20;59.70
2957;DHT22;1488;51.548;7.222;2023-03-15T07:47:34;19.20;59.60
2957;DHT22;1488;51.548;7.222;2023-03-15T07:50:01;19.20;59.70
2957;DHT22;1488;51.548;7.222;2023-03-15T07:52:28;19.30;59.90
2957;DHT22;1488;51.548;7.222;2023-03-15T07:54:55;19.30;60.10
2957;DHT22;1488;51.548;7.222;2023-03-15T07:57:22;19.30;60.20
2957;DHT22;1488;51.548;7.222;2023-03-15T07:59:50;19.30;60.10
2957;DHT22;1488;51.548;7.222;2023-03-15T08:02:19;19.40;60.30
2957;DHT22;1488;51.548;7.222;2023-03-15T08:04:46;19.40;60.20
2957;DHT22;1488;51.548;7.222;2023-03-15T08:07:15;19.40;60.40
2957;DHT22;1488;51.548;7.222;2023-03-15T08:09:43;19.40;60.20
2957;DHT22;1488;51.548;7.222;2023-03-15T08:12:12;19.20;59.80
2957;DHT22;1488;51.548;7.222;2023-03-15T08:15:01;19.40;60.00
2957;DHT22;1488;51.548;7.222;2023-03-15T08:17:37;19.40;60.00
2957;DHT22;1488;51.548;7.222;2023-03-15T08:20:06;19.40;60.20
2957;DHT22;1488;51.548;7.222;2023-03-15T08:22:37;19.40;60.00
2957;DHT22;1488;51.548;7.222;2023-03-15T08:25:15;19.40;60.00
2957;DHT22;1488;51.548;7.222;2023-03-15T08:27:43;19.50;60.00
2957;DHT22;1488;51.548;7.222;2023-03-15T08:30:14;19.50;59.90
2957;DHT22;1488;51.548;7.222;2023-03-15T08:36:24;19.50;60.00
2957;DHT22;1488;51.548;7.222;2023-03-15T08:38:51;19.40;60.00
2957;DHT22;1488;51.548;7.222;2023-03-15T08:41:18;19.40;60.10
2957;DHT22;1488;51.548;7.222;2023-03-15T08:43:44;19.40;60.40
2957;DHT22;1488;51.548;7.222;2023-03-15T08:46:13;19.40;60.00
2957;DHT22;1488;51.548;7.222;2023-03-15T08:48:44;19.40;60.00
2957;DHT22;1488;51.548;7.222;2023-03-15T08:51:11;19.60;60.10
2957;DHT22;1488;51.548;7.222;2023-03-15T08:53:37;19.40;60.00
2957;DHT22;1488;51.548;7.222;2023-03-15T08:56:06;19.50;60.20
2957;DHT22;1488;51.548;7.222;2023-03-15T08:58:36;19.50;60.30
2957;DHT22;1488;51.548;7.222;2023-03-15T09:01:04;19.70;60.30
2957;DHT22;1488;51.548;7.222;2023-03-15T09:03:32;19.50;59.90
2957;DHT22;1488;51.548;7.222;2023-03-15T09:05:59;19.60;60.00
2957;DHT22;1488;51.548;7.222;2023-03-15T09:08:26;19.60;60.00
2957;DHT22;1488;51.548;7.222;2023-03-15T09:10:53;19.50;60.00
2957;DHT22;1488;51.548;7.222;2023-03-15T09:13:20;19.50;60.00
2957;DHT22;1488;51.548;7.222;2023-03-15T09:15:49;19.50;60.00
2957;DHT22;1488;51.548;7.222;2023-03-15T09:18:16;19.50;59.00
2957;DHT22;1488;51.548;7.222;2023-03-15T09:20:44;19.50;58.50
2957;DHT22;1488;51.548;7.222;2023-03-15T09:23:12;19.50;58.60
2957;DHT22;1488;51.548;7.222;2023-03-15T09:25:39;19.60;58.80
2957;DHT22;1488;51.548;7.222;2023-03-15T09:28:07;19.60;59.10
2957;DHT22;1488;51.548;7.222;2023-03-15T09:30:36;19.60;59.30
2957;DHT22;1488;51.548;7.222;2023-03-15T09:33:04;19.60;59.40
2957;DHT22;1488;51.548;7.222;2023-03-15T09:35:32;19.50;59.50
2957;DHT22;1488;51.548;7.222;2023-03-15T09:38:00;19.60;59.40
2957;DHT22;1488;51.548;7.222;2023-03-15T09:40:31;19.60;59.60
2957;DHT22;1488;51.548;7.222;2023-03-15T09:43:03;19.60;59.70
2957;DHT22;1488;51.548;7.222;2023-03-15T09:45:47;19.70;59.90
2957;DHT22;1488;51.548;7.222;2023-03-15T09:48:23;19.70;60.00
2957;DHT22;1488;51.548;7.222;2023-03-15T09:50:54;19.80;59.80
2957;DHT22;1488;51.548;7.222;2023-03-15T09:53:28;19.90;59.90
2957;DHT22;1488;51.548;7.222;2023-03-15T09:55:58;19.90;59.60
2957;DHT22;1488;51.548;7.222;2023-03-15T09:58:28;20.00;59.60
2957;DHT22;1488;51.548;7.222;2023-03-15T10:00:59;19.90;59.60
2957;DHT22;1488;51.548;7.222;2023-03-15T10:03:32;20.00;59.70
2957;DHT22;1488;51.548;7.222;2023-03-15T10:06:06;19.90;59.70
2957;DHT22;1488;51.548;7.222;2023-03-15T10:08:38;20.00;59.90
2957;DHT22;1488;51.548;7.222;2023-03-15T10:11:10;20.00;59.90
2957;DHT22;1488;51.548;7.222;2023-03-15T10:13:53;20.00;59.90
2957;DHT22;1488;51.548;7.222;2023-03-15T10:16:33;20.10;60.80
2957;DHT22;1488;51.548;7.222;2023-03-15T10:19:10;20.20;59.90
2957;DHT22;1488;51.548;7.222;2023-03-15T10:21:45;20.10;60.00
2957;DHT22;1488;51.548;7.222;2023-03-15T10:24:19;20.20;60.30
2957;DHT22;1488;51.548;7.222;2023-03-15T10:26:50;20.20;60.40
2957;DHT22;1488;51.548;7.222;2023-03-15T10:29:20;20.30;60.60
2957;DHT22;1488;51.548;7.222;2023-03-15T10:31:50;20.40;60.60
2957;DHT22;1488;51.548;7.222;2023-03-15T10:34:18;20.50;60.60
2957;DHT22;1488;51.548;7.222;2023-03-15T10:36:47;20.30;60.20
2957;DHT22;1488;51.548;7.222;2023-03-15T10:39:20;20.60;60.40
2957;DHT22;1488;51.548;7.222;2023-03-15T10:41:49;20.60;60.20
2957;DHT22;1488;51.548;7.222;2023-03-15T10:44:19;20.50;60.20
2957;DHT22;1488;51.548;7.222;2023-03-15T10:46:59;20.50;60.20
2957;DHT22;1488;51.548;7.222;2023-03-15T10:49:35;20.30;60.30
2957;DHT22;1488;51.548;7.222;2023-03-15T10:52:03;20.50;60.50
2957;DHT22;1488;51.548;7.222;2023-03-15T10:54:32;20.40;60.40
2957;DHT22;1488;51.548;7.222;2023-03-15T10:57:02;20.40;60.50
2957;DHT22;1488;51.548;7.222;2023-03-15T10:59:31;20.30;60.40
2957;DHT22;1488;51.548;7.222;2023-03-15T11:02:18;20.40;60.50
2957;DHT22;1488;51.548;7.222;2023-03-15T11:04:48;20.50;60.60
2957;DHT22;1488;51.548;7.222;2023-03-15T11:07:16;20.50;60.40
2957;DHT22;1488;51.548;7.222;2023-03-15T11:09:51;20.60;60.40
2957;DHT22;1488;51.548;7.222;2023-03-15T11:12:22;20.70;60.50
2957;DHT22;1488;51.548;7.222;2023-03-15T11:14:51;20.80;60.60
2957;DHT22;1488;51.548;7.222;2023-03-15T11:17:23;20.80;60.50
2957;DHT22;1488;51.548;7.222;2023-03-15T11:19:54;20.80;60.40
2957;DHT22;1488;51.548;7.222;2023-03-15T11:22:22;20.90;60.50
2957;DHT22;1488;51.548;7.222;2023-03-15T11:24:52;21.00;60.40
2957;DHT22;1488;51.548;7.222;2023-03-15T11:27:22;21.10;60.40
2957;DHT22;1488;51.548;7.222;2023-03-15T11:29:52;21.20;60.40
2957;DHT22;1488;51.548;7.222;2023-03-15T11:32:24;21.20;60.50
2957;DHT22;1488;51.548;7.222;2023-03-15T11:34:56;21.20;60.40
2957;DHT22;1488;51.548;7.222;2023-03-15T11:37:28;21.30;60.60
2957;DHT22;1488;51.548;7.222;2023-03-15T11:40:01;21.30;60.60
2957;DHT22;1488;51.548;7.222;2023-03-15T11:42:32;21.30;60.70
2957;DHT22;1488;51.548;7.222;2023-03-15T11:45:03;21.30;60.60
2957;DHT22;1488;51.548;7.222;2023-03-15T11:47:40;21.40;60.60
2957;DHT22;1488;51.548;7.222;2023-03-15T11:50:11;21.40;60.60
2957;DHT22;1488;51.548;7.222;2023-03-15T11:52:39;21.50;60.60
2957;DHT22;1488;51.548;7.222;2023-03-15T11:55:18;21.50;60.60
2957;DHT22;1488;51.548;7.222;2023-03-15T11:57:46;21.50;60.70
2957;DHT22;1488;51.548;7.222;2023-03-15T12:03:28;21.60;60.50
2957;DHT22;1488;51.548;7.222;2023-03-15T12:06:00;21.60;60.40
2957;DHT22;1488;51.548;7.222;2023-03-15T12:08:43;21.60;60.00
2957;DHT22;1488;51.548;7.222;2023-03-15T12:11:12;21.60;60.10
2957;DHT22;1488;51.548;7.222;2023-03-15T12:13:50;21.60;60.10
2957;DHT22;1488;51.548;7.222;2023-03-15T12:16:20;21.60;60.30
2957;DHT22;1488;51.548;7.222;2023-03-15T12:18:47;21.70;60.40
2957;DHT22;1488;51.548;7.222;2023-03-15T12:21:18;21.60;60.30
2957;DHT22;1488;51.548;7.222;2023-03-15T12:23:55;21.70;60.40
2957;DHT22;1488;51.548;7.222;2023-03-15T12:26:30;21.70;60.40
2957;DHT22;1488;51.548;7.222;2023-03-15T12:29:09;21.80;60.50
2957;DHT22;1488;51.548;7.222;2023-03-15T12:31:48;21.90;60.70
2957;DHT22;1488;51.548;7.222;2023-03-15T12:34:24;21.90;61.00
2957;DHT22;1488;51.548;7.222;2023-03-15T12:36:54;21.90;60.90
2957;DHT22;1488;51.548;7.222;2023-03-15T12:39:37;21.90;61.30
2957;DHT22;1488;51.548;7.222;2023-03-15T12:42:10;21.90;61.40
2957;DHT22;1488;51.548;7.222;2023-03-15T12:44:39;21.80;61.40
2957;DHT22;1488;51.548;7.222;2023-03-15T12:47:07;21.80;61.70
2957;DHT22;1488;51.548;7.222;2023-03-15T12:49:37;21.80;62.00
2957;DHT22;1488;51.548;7.222;2023-03-15T12:52:08;21.70;62.20
2957;DHT22;1488;51.548;7.222;2023-03-15T12:54:42;21.70;61.70
2957;DHT22;1488;51.548;7.222;2023-03-15T12:57:13;21.60;61.10
2957;DHT22;1488;51.548;7.222;2023-03-15T12:59:45;21.60;61.40
2957;DHT22;1488;51.548;7.222;2023-03-15T13:02:26;21.70;62.00
2957;DHT22;1488;51.548;7.222;2023-03-15T13:04:59;21.70;61.60
2957;DHT22;1488;51.548;7.222;2023-03-15T13:07:31;21.70;61.80
2957;DHT22;1488;51.548;7.222;2023-03-15T13:12:58;21.80;62.00
2957;DHT22;1488;51.548;7.222;2023-03-15T13:15:30;21.70;62.10
2957;DHT22;1488;51.548;7.222;2023-03-15T13:18:03;21.80;62.20
2957;DHT22;1488;51.548;7.222;2023-03-15T13:20:40;21.80;62.20
2957;DHT22;1488;51.548;7.222;2023-03-15T13:23:13;21.70;62.20
2957;DHT22;1488;51.548;7.222;2023-03-15T13:25:49;21.70;62.30
2957;DHT22;1488;51.548;7.222;2023-03-15T13:28:22;21.70;62.50
2957;DHT22;1488;51.548;7.222;2023-03-15T13:30:50;21.70;62.40
2957;DHT22;1488;51.548;7.222;2023-03-15T13:33:20;21.80;62.60
2957;DHT22;1488;51.548;7.222;2023-03-15T13:35:52;21.80;62.60
2957;DHT22;1488;51.548;7.222;2023-03-15T13:38:30;21.70;62.40
2957;DHT22;1488;51.548;7.222;2023-03-15T13:40:58;21.80;62.60
2957;DHT22;1488;51.548;7.222;2023-03-15T13:43:34;21.80;62.60
2957;DHT22;1488;51.548;7.222;2023-03-15T13:46:01;21.80;62.60
2957;DHT22;1488;51.548;7.222;2023-03-15T13:48:29;21.80;62.50
2957;DHT22;1488;51.548;7.222;2023-03-15T13:51:02;21.90;62.60
2957;DHT22;1488;51.548;7.222;2023-03-15T13:53:32;21.80;62.70
2957;DHT22;1488;51.548;7.222;2023-03-15T13:56:00;21.80;62.60
2957;DHT22;1488;51.548;7.222;2023-03-15T13:58:28;21.80;62.50
2957;DHT22;1488;51.548;7.222;2023-03-15T14:00:58;21.80;62.40
2957;DHT22;1488;51.548;7.222;2023-03-15T14:03:27;21.80;63.20
2957;DHT22;1488;51.548;7.222;2023-03-15T14:05:55;21.80;62.20
2957;DHT22;1488;51.548;7.222;2023-03-15T14:08:25;21.90;62.20
2957;DHT22;1488;51.548;7.222;2023-03-15T14:11:01;21.80;61.90
2957;DHT22;1488;51.548;7.222;2023-03-15T14:13:31;21.80;61.80
2957;DHT22;1488;51.548;7.222;2023-03-15T14:16:03;21.70;61.70
2957;DHT22;1488;51.548;7.222;2023-03-15T14:18:33;21.70;61.40
2957;DHT22;1488;51.548;7.222;2023-03-15T14:21:04;21.70;61.30
2957;DHT22;1488;51.548;7.222;2023-03-15T14:23:35;21.60;60.90
2957;DHT22;1488;51.548;7.222;2023-03-15T14:26:12;21.60;60.90
2957;DHT22;1488;51.548;7.222;2023-03-15T14:28:47;21.60;60.90
2957;DHT22;1488;51.548;7.222;2023-03-15T14:31:20;21.60;60.70
2957;DHT22;1488;51.548;7.222;2023-03-15T14:33:51;21.60;60.50
2957;DHT22;1488;51.548;7.222;2023-03-15T14:36:24;21.60;60.40
2957;DHT22;1488;51.548;7.222;2023-03-15T14:38:57;21.60;60.30
2957;DHT22;1488;51.548;7.222;2023-03-15T14:41:29;21.60;60.20
2957;DHT22;1488;51.548;7.222;2023-03-15T14:43:59;21.60;60.20
2957;DHT22;1488;51.548;7.222;2023-03-15T14:46:27;21.60;60.20
2957;DHT22;1488;51.548;7.222;2023-03-15T14:48:54;21.60;60.10
2957;DHT22;1488;51.548;7.222;2023-03-15T14:51:22;21.60;60.20
2957;DHT22;1488;51.548;7.222;2023-03-15T14:53:52;21.60;60.40
2957;DHT22;1488;51.548;7.222;2023-03-15T14:56:21;21.60;60.40
2957;DHT22;1488;51.548;7.222;2023-03-15T14:58:48;21.50;60.30
2957;DHT22;1488;51.548;7.222;2023-03-15T15:01:18;21.50;60.40
2957;DHT22;1488;51.548;7.222;2023-03-15T15:03:48;21.60;60.60
2957;DHT22;1488;51.548;7.222;2023-03-15T15:06:16;21.60;60.70
2957;DHT22;1488;51.548;7.222;2023-03-15T15:08:45;21.40;60.50
2957;DHT22;1488;51.548;7.222;2023-03-15T15:11:13;21.40;61.40
2957;DHT22;1488;51.548;7.222;2023-03-15T15:13:41;21.40;60.60
2957;DHT22;1488;51.548;7.222;2023-03-15T15:16:08;21.30;60.60
2957;DHT22;1488;51.548;7.222;2023-03-15T15:18:36;21.30;60.70
2957;DHT22;1488;51.548;7.222;2023-03-15T15:21:11;21.30;60.70
2957;DHT22;1488;51.548;7.222;2023-03-15T15:23:40;21.30;60.80
2957;DHT22;1488;51.548;7.222;2023-03-15T15:26:13;21.30;60.80
2957;DHT22;1488;51.548;7.222;2023-03-15T15:28:41;21.30;60.90
2957;DHT22;1488;51.548;7.222;2023-03-15T15:31:12;21.20;60.80
2957;DHT22;1488;51.548;7.222;2023-03-15T15:33:41;21.20;60.90
2957;DHT22;1488;51.548;7.222;2023-03-15T15:36:11;21.20;61.00
2957;DHT22;1488;51.548;7.222;2023-03-15T15:38:39;21.20;61.10
2957;DHT22;1488;51.548;7.222;2023-03-15T15:41:13;21.20;61.10
2957;DHT22;1488;51.548;7.222;2023-03-15T15:43:41;21.20;61.20
2957;DHT22;1488;51.548;7.222;2023-03-15T15:46:09;21.20;61.20
2957;DHT22;1488;51.548;7.222;2023-03-15T15:48:37;21.20;61.30
2957;DHT22;1488;51.548;7.222;2023-03-15T15:51:16;21.20;61.20
2957;DHT22;1488;51.548;7.222;2023-03-15T15:53:44;21.20;61.40
2957;DHT22;1488;51.548;7.222;2023-03-15T15:56:11;21.20;61.40
2957;DHT22;1488;51.548;7.222;2023-03-15T15:58:39;21.10;61.30
2957;DHT22;1488;51.548;7.222;2023-03-15T16:01:10;21.10;61.40
2957;DHT22;1488;51.548;7.222;2023-03-15T16:03:37;21.10;61.20
2957;DHT22;1488;51.548;7.222;2023-03-15T16:06:04;21.10;61.40
2957;DHT22;1488;51.548;7.222;2023-03-15T16:08:37;21.10;61.30
2957;DHT22;1488;51.548;7.222;2023-03-15T16:11:04;21.10;61.30
2957;DHT22;1488;51.548;7.222;2023-03-15T16:13:33;21.10;61.30
2957;DHT22;1488;51.548;7.222;2023-03-15T16:15:59;21.10;61.30
2957;DHT22;1488;51.548;7.222;2023-03-15T16:18:26;21.20;61.50
2957;DHT22;1488;51.548;7.222;2023-03-15T16:20:53;21.00;61.20
2957;DHT22;1488;51.548;7.222;2023-03-15T16:23:22;21.10;61.20
2957;DHT22;1488;51.548;7.222;2023-03-15T16:25:53;21.00;61.00
2957;DHT22;1488;51.548;7.222;2023-03-15T16:28:21;21.00;58.80
2957;DHT22;1488;51.548;7.222;2023-03-15T16:30:48;20.90;59.60